Terminal Aerodrome Forecast
Issued by NWS Portland, OR

Home | Current Version | Previous Version | Text Only | Print | Product List | Glossary On
Versions: 1 2 3 4 5 6 7 8 9 10 11 12 13 14 15 16 17 18 19 20 21 22 23 24 25 26 27 28 29 30 31 32 33 34 35 36 37 38 39 40 41 42 43 44 45 46 47 48
000
FTUS46 KPQR 210520
TAFAST
TAF
KAST 210520Z 2106/2206 17011KT P6SM -SHRA SCT035 BKN070
     FM211100 16006KT P6SM VCSH BKN040 BKN070
     FM211600 12004KT 6SM -RA BR BKN030 OVC050
     FM212200 19013G22KT P6SM -RA SCT030 OVC045
     FM220400 19018G30KT 4SM RA OVC015=

USA.gov is the U.S. government's official web portal to all federal, state and local government web resources and services.